Time;durP1;ratioP1;P1;durP2;ratioP2;P2;SDS_P1;SDS_P2;PMS_P1;PMS_P2;Temp;Humidity;BMP_temperature;BMP_pressure;BME280_temperature;BME280_humidity;BME280_pressure;Samples;Min_cycle;Max_cycle;Signal;HPM_P1;HPM_P2
2023/04/21 00:02:16;;;;;;;24.20;14.93;;;6.90;99.90;;;;;;4957111;28;20063;-65
2023/04/21 00:04:44;;;;;;;25.17;14.73;;;6.80;99.90;;;;;;4947607;28;20092;-67
2023/04/21 00:07:10;;;;;;;27.88;15.93;;;6.80;99.90;;;;;;4946772;28;20109;-66
2023/04/21 00:09:36;;;;;;;24.27;15.40;;;6.80;99.90;;;;;;4944651;28;20031;-66
2023/04/21 00:12:01;;;;;;;27.67;15.52;;;6.80;99.90;;;;;;4944899;28;20039;-67
2023/04/21 00:14:27;;;;;;;27.88;16.08;;;6.80;99.90;;;;;;4950861;28;20035;-66
2023/04/21 00:16:52;;;;;;;27.33;16.25;;;6.80;99.90;;;;;;4942250;28;20500;-67
2023/04/21 00:19:19;;;;;;;30.00;16.02;;;6.80;99.90;;;;;;4935537;28;20135;-66
2023/04/21 00:21:44;;;;;;;31.45;17.10;;;6.80;99.90;;;;;;4945911;28;20024;-65
2023/04/21 00:24:10;;;;;;;27.58;15.95;;;6.80;99.90;;;;;;4944956;28;20485;-64
2023/04/21 00:26:36;;;;;;;28.38;16.33;;;6.80;99.90;;;;;;4947572;28;20032;-66
2023/04/21 00:29:02;;;;;;;28.40;15.90;;;6.80;99.90;;;;;;4954686;28;20062;-65
2023/04/21 00:31:28;;;;;;;27.10;15.73;;;6.90;99.90;;;;;;4958644;28;20041;-68
2023/04/21 00:33:54;;;;;;;27.20;15.70;;;6.90;99.90;;;;;;4958565;28;20023;-65
2023/04/21 00:36:20;;;;;;;23.85;15.63;;;6.90;99.90;;;;;;4949717;28;20089;-66
2023/04/21 00:38:45;;;;;;;27.58;15.82;;;6.90;99.90;;;;;;4937416;28;20514;-66
2023/04/21 00:41:11;;;;;;;25.63;14.63;;;6.90;99.90;;;;;;4954110;28;20023;-66
2023/04/21 00:43:46;;;;;;;27.58;17.02;;;6.90;99.90;;;;;;4954703;28;20396;-67
2023/04/21 00:46:12;;;;;;;25.13;14.32;;;6.90;99.90;;;;;;4949481;28;20039;-66
2023/04/21 00:48:37;;;;;;;25.02;14.15;;;6.90;99.90;;;;;;4946696;28;20030;-66
2023/04/21 00:51:03;;;;;;;30.25;17.27;;;6.90;99.90;;;;;;4963492;28;20036;-67
2023/04/21 00:53:29;;;;;;;25.52;16.25;;;6.90;99.90;;;;;;4954073;28;20038;-67
2023/04/21 00:55:54;;;;;;;31.67;16.95;;;6.90;99.90;;;;;;4946904;28;20081;-65
2023/04/21 00:58:20;;;;;;;27.77;16.60;;;6.90;99.90;;;;;;4930237;28;20031;-67
2023/04/21 01:00:45;;;;;;;31.88;17.40;;;6.90;99.90;;;;;;4943824;28;20058;-68
2023/04/21 01:03:11;;;;;;;28.38;16.75;;;6.90;99.90;;;;;;4942763;28;20034;-66
2023/04/21 01:05:37;;;;;;;31.88;17.25;;;6.90;99.90;;;;;;4944421;28;20513;-66
2023/04/21 01:08:04;;;;;;;31.38;17.35;;;6.90;99.90;;;;;;4942445;28;20580;-66
2023/04/21 01:10:30;;;;;;;30.10;17.83;;;6.90;99.90;;;;;;4942439;28;20058;-67
2023/04/21 01:12:55;;;;;;;29.77;16.15;;;6.90;99.90;;;;;;4943901;28;20092;-65
2023/04/21 01:15:21;;;;;;;34.05;18.05;;;6.90;99.90;;;;;;4950462;28;20031;-65
2023/04/21 01:17:48;;;;;;;27.83;17.60;;;6.80;99.90;;;;;;4943199;28;20023;-66
2023/04/21 01:20:14;;;;;;;32.97;18.40;;;6.80;99.90;;;;;;4942909;28;20134;-66
2023/04/21 01:22:41;;;;;;;32.33;17.60;;;6.80;99.90;;;;;;4941039;28;20058;-66
2023/04/21 01:25:07;;;;;;;30.45;17.40;;;6.80;99.90;;;;;;4946103;28;20493;-67
2023/04/21 01:27:33;;;;;;;31.08;18.50;;;6.80;99.90;;;;;;4946035;28;20511;-66
2023/04/21 01:29:59;;;;;;;39.13;19.00;;;6.80;99.90;;;;;;4943655;28;20031;-66
2023/04/21 01:32:30;;;;;;;33.42;18.88;;;6.80;99.90;;;;;;4944353;28;20369;-65
2023/04/21 01:34:57;;;;;;;33.83;19.13;;;6.80;99.90;;;;;;4944984;28;20038;-65
2023/04/21 01:37:26;;;;;;;37.63;19.95;;;6.80;99.90;;;;;;4948996;28;20059;-66
2023/04/21 01:39:54;;;;;;;32.25;19.42;;;6.90;99.90;;;;;;4928101;28;20419;-65
2023/04/21 01:42:22;;;;;;;33.65;19.73;;;6.90;99.90;;;;;;4959722;28;20102;-67
2023/04/21 01:44:48;;;;;;;33.38;18.35;;;6.80;99.90;;;;;;4956694;28;20031;-67
2023/04/21 01:47:16;;;;;;;36.85;20.58;;;6.80;99.90;;;;;;4947035;28;20038;-68
2023/04/21 01:49:41;;;;;;;35.53;19.00;;;6.80;99.90;;;;;;4958693;28;20058;-66
2023/04/21 01:52:07;;;;;;;35.58;19.80;;;6.80;99.90;;;;;;4953912;23;20547;-65
2023/04/21 01:54:34;;;;;;;38.53;20.63;;;6.90;99.90;;;;;;4928441;28;20044;-64
2023/04/21 01:57:00;;;;;;;36.15;19.23;;;6.80;99.90;;;;;;4924862;28;20501;-65
2023/04/21 01:59:26;;;;;;;36.45;20.13;;;6.80;99.90;;;;;;4926928;28;20035;-65
2023/04/21 02:01:51;;;;;;;36.88;20.15;;;6.90;99.90;;;;;;4925534;28;20032;-65
2023/04/21 02:04:17;;;;;;;34.03;20.23;;;6.90;99.90;;;;;;4925951;28;20027;-64
2023/04/21 02:06:43;;;;;;;38.42;18.98;;;6.90;99.90;;;;;;4925933;28;20032;-63
2023/04/21 02:09:08;;;;;;;39.22;19.92;;;6.80;99.90;;;;;;4924700;28;20106;-65
2023/04/21 02:11:34;;;;;;;34.42;18.13;;;6.90;99.90;;;;;;4925732;28;20043;-65
2023/04/21 02:13:59;;;;;;;34.28;18.40;;;6.80;99.90;;;;;;4918275;28;20032;-65
2023/04/21 02:16:25;;;;;;;35.00;18.80;;;6.90;99.90;;;;;;4929456;28;20468;-67
2023/04/21 02:19:02;;;;;;;36.13;19.52;;;6.90;99.90;;;;;;4930300;28;20056;-65
2023/04/21 02:21:27;;;;;;;40.10;19.20;;;6.90;99.90;;;;;;4922447;28;20035;-67
2023/04/21 02:23:53;;;;;;;37.53;18.55;;;6.90;99.90;;;;;;4926588;28;20032;-65
2023/04/21 02:26:19;;;;;;;39.67;18.02;;;6.80;99.90;;;;;;4930228;28;20030;-65
2023/04/21 02:28:45;;;;;;;38.47;19.80;;;6.80;99.90;;;;;;4923746;28;20409;-65
2023/04/21 02:31:11;;;;;;;36.65;19.13;;;6.80;99.90;;;;;;4929780;28;20090;-64
2023/04/21 02:33:36;;;;;;;40.72;21.20;;;6.80;99.90;;;;;;4926348;28;20035;-64
2023/04/21 02:36:03;;;;;;;36.63;19.08;;;6.70;99.90;;;;;;4914057;28;20028;-65
2023/04/21 02:38:29;;;;;;;35.83;19.65;;;6.70;99.90;;;;;;4925078;28;20042;-64
2023/04/21 02:40:55;;;;;;;34.80;19.52;;;6.70;99.90;;;;;;4910376;28;20048;-63
2023/04/21 02:43:21;;;;;;;35.95;19.30;;;6.70;99.90;;;;;;4923971;28;20028;-64
2023/04/21 02:45:46;;;;;;;36.95;19.20;;;6.70;99.90;;;;;;4924941;28;20028;-64
2023/04/21 02:48:12;;;;;;;37.47;18.80;;;6.70;99.90;;;;;;4925885;28;20038;-65
2023/04/21 02:50:39;;;;;;;31.20;17.83;;;6.60;99.90;;;;;;4928221;28;20024;-64
2023/04/21 02:53:04;;;;;;;38.60;19.17;;;6.60;99.90;;;;;;4923185;28;20097;-65
2023/04/21 02:55:30;;;;;;;37.90;19.35;;;6.50;99.90;;;;;;4922472;28;20482;-65
2023/04/21 02:57:56;;;;;;;38.15;19.63;;;6.40;99.90;;;;;;4927208;28;20023;-64
2023/04/21 03:00:21;;;;;;;38.05;21.02;;;6.40;99.90;;;;;;4926488;28;20142;-63
2023/04/21 03:02:47;;;;;;;39.72;19.75;;;6.40;99.90;;;;;;4924002;28;20035;-65
2023/04/21 03:05:12;;;;;;;44.17;20.80;;;6.40;99.90;;;;;;4930112;28;20478;-65
2023/04/21 03:07:38;;;;;;;35.03;19.35;;;6.40;99.90;;;;;;4928462;28;20101;-63
2023/04/21 03:10:05;;;;;;;42.10;21.23;;;6.30;99.90;;;;;;4907045;28;20020;-64
2023/04/21 03:12:31;;;;;;;46.97;21.00;;;6.30;99.90;;;;;;4918077;29;20032;-63
2023/04/21 03:14:57;;;;;;;45.33;21.85;;;6.20;99.90;;;;;;4920660;28;20601;-64
2023/04/21 03:17:23;;;;;;;45.38;20.25;;;6.20;99.90;;;;;;4927975;28;20035;-64
2023/04/21 03:19:49;;;;;;;46.60;21.48;;;6.10;99.90;;;;;;4927623;28;20028;-65
2023/04/21 03:22:14;;;;;;;49.33;21.15;;;6.10;99.90;;;;;;4933838;28;20134;-65
2023/04/21 03:24:40;;;;;;;45.30;21.80;;;6.10;99.90;;;;;;4928054;28;20039;-65
2023/04/21 03:27:05;;;;;;;46.95;21.85;;;6.20;99.90;;;;;;4929040;28;20103;-64
2023/04/21 03:29:31;;;;;;;49.90;21.42;;;6.10;99.90;;;;;;4923610;28;20042;-64
2023/04/21 03:31:56;;;;;;;44.30;20.90;;;6.10;99.90;;;;;;4929923;28;20035;-65
2023/04/21 03:34:22;;;;;;;44.20;21.13;;;6.00;99.90;;;;;;4928571;28;20039;-64
2023/04/21 03:36:48;;;;;;;51.47;22.30;;;6.00;99.90;;;;;;4909362;28;20080;-64
2023/04/21 03:39:13;;;;;;;43.53;21.05;;;6.10;99.90;;;;;;4899878;28;20028;-62
2023/04/21 03:41:39;;;;;;;48.60;23.00;;;6.00;99.90;;;;;;4927282;28;20031;-64
2023/04/21 03:44:04;;;;;;;47.42;20.25;;;6.00;99.90;;;;;;4927091;28;20031;-64
2023/04/21 03:46:30;;;;;;;40.00;19.08;;;6.00;99.90;;;;;;4924763;28;20028;-65
2023/04/21 03:48:55;;;;;;;42.15;19.90;;;6.00;99.90;;;;;;4924952;28;20034;-63
2023/04/21 03:51:21;;;;;;;48.20;21.63;;;5.90;99.90;;;;;;4926213;28;20122;-64
2023/04/21 03:53:47;;;;;;;42.30;20.35;;;5.90;99.90;;;;;;4927292;28;20028;-64
2023/04/21 03:56:12;;;;;;;39.95;19.98;;;5.80;99.90;;;;;;4934973;28;20043;-64
2023/04/21 03:58:38;;;;;;;45.03;20.02;;;5.80;99.90;;;;;;4926475;28;20039;-64
2023/04/21 04:01:05;;;;;;;41.25;20.58;;;5.80;99.90;;;;;;4927895;28;20027;-65
2023/04/21 04:03:31;;;;;;;47.67;21.13;;;5.80;99.90;;;;;;4931734;28;20028;-64
2023/04/21 04:05:56;;;;;;;47.45;20.02;;;5.80;99.90;;;;;;4927084;28;20035;-65
2023/04/21 04:08:22;;;;;;;45.42;20.38;;;5.80;99.90;;;;;;4924714;28;20497;-64
2023/04/21 04:10:47;;;;;;;47.97;20.83;;;5.80;99.90;;;;;;4911322;28;20032;-64
2023/04/21 04:13:13;;;;;;;41.13;18.92;;;5.80;99.90;;;;;;4932858;28;20043;-64
2023/04/21 04:15:38;;;;;;;46.75;21.98;;;5.80;99.90;;;;;;4927524;28;20019;-65
2023/04/21 04:18:04;;;;;;;45.00;21.50;;;5.70;99.90;;;;;;4925872;28;20031;-65
2023/04/21 04:20:30;;;;;;;51.80;22.65;;;5.70;99.90;;;;;;4925649;28;20839;-64
2023/04/21 04:22:55;;;;;;;48.45;20.35;;;5.80;99.90;;;;;;4924607;28;20036;-62
2023/04/21 04:25:21;;;;;;;50.75;21.05;;;5.80;99.90;;;;;;4938166;28;20039;-65
2023/04/21 04:27:49;;;;;;;47.25;19.40;;;5.80;99.90;;;;;;4929250;28;20028;-64
2023/04/21 04:30:15;;;;;;;50.53;20.50;;;5.80;99.90;;;;;;4927375;28;20021;-64
2023/04/21 04:32:41;;;;;;;49.78;21.75;;;5.80;99.90;;;;;;4927643;28;20066;-64
2023/04/21 04:35:08;;;;;;;50.15;20.77;;;5.80;99.90;;;;;;4927344;28;20573;-63
2023/04/21 04:37:36;;;;;;;53.45;22.17;;;5.80;99.90;;;;;;4928537;28;20051;-64
2023/04/21 04:40:05;;;;;;;51.28;21.50;;;5.70;99.90;;;;;;4906155;28;20134;-65
2023/04/21 04:42:31;;;;;;;49.65;21.75;;;5.80;99.90;;;;;;4922963;28;20036;-62
2023/04/21 04:45:00;;;;;;;57.78;23.65;;;5.80;99.90;;;;;;4937534;28;20074;-64
2023/04/21 04:47:26;;;;;;;51.10;21.17;;;5.70;99.90;;;;;;4924988;28;20034;-62
2023/04/21 04:49:51;;;;;;;49.97;20.95;;;5.80;99.90;;;;;;4936989;28;20039;-65
2023/04/21 04:52:17;;;;;;;57.63;22.42;;;5.80;99.90;;;;;;4939352;28;20540;-64
2023/04/21 04:54:43;;;;;;;47.70;21.45;;;5.80;99.90;;;;;;4934220;28;20035;-65
2023/04/21 04:57:08;;;;;;;47.97;22.10;;;5.90;99.90;;;;;;4929521;28;20030;-64
2023/04/21 04:59:35;;;;;;;54.25;23.20;;;5.90;99.90;;;;;;4929822;28;20047;-64
2023/04/21 05:02:01;;;;;;;44.80;22.92;;;6.00;99.90;;;;;;4929320;28;20101;-64
2023/04/21 05:04:27;;;;;;;54.42;22.20;;;6.10;99.90;;;;;;4927570;28;20561;-65
2023/04/21 05:06:52;;;;;;;49.28;21.38;;;6.20;99.90;;;;;;4909857;28;20122;-64
2023/04/21 05:09:18;;;;;;;41.83;20.70;;;6.30;99.90;;;;;;4924306;28;20563;-65
2023/04/21 05:11:44;;;;;;;47.33;19.75;;;6.30;99.90;;;;;;4927570;28;20110;-64
2023/04/21 05:14:09;;;;;;;46.38;21.23;;;6.40;99.90;;;;;;4916936;28;20032;-63
2023/04/21 05:16:35;;;;;;;50.97;24.38;;;6.50;99.90;;;;;;4925541;28;20039;-63
2023/04/21 05:19:01;;;;;;;38.42;19.25;;;6.60;99.90;;;;;;4922255;28;20028;-64
2023/04/21 05:21:27;;;;;;;37.50;19.50;;;6.60;99.90;;;;;;4927475;28;20038;-64
2023/04/21 05:23:57;;;;;;;39.90;19.60;;;6.70;99.90;;;;;;4926610;28;20445;-64
2023/04/21 05:26:24;;;;;;;36.58;18.02;;;6.70;99.90;;;;;;4927204;28;20051;-63
2023/04/21 05:28:50;;;;;;;41.72;19.30;;;6.70;99.90;;;;;;4928344;29;20154;-65
2023/04/21 05:31:15;;;;;;;33.88;18.23;;;6.80;99.90;;;;;;4921722;28;20369;-64
2023/04/21 05:33:41;;;;;;;33.40;17.55;;;6.90;99.90;;;;;;4927090;28;20040;-64
2023/04/21 05:36:08;;;;;;;37.35;20.65;;;7.00;99.90;;;;;;4925865;28;20031;-63
2023/04/21 05:38:34;;;;;;;32.47;18.20;;;7.00;99.90;;;;;;4922350;28;20031;-64
2023/04/21 05:41:00;;;;;;;34.08;17.35;;;7.00;99.90;;;;;;4912723;28;20050;-64
2023/04/21 05:43:26;;;;;;;33.55;18.02;;;7.10;99.90;;;;;;4938094;28;20031;-65
2023/04/21 05:45:51;;;;;;;37.83;18.25;;;7.10;99.90;;;;;;4937803;28;20039;-64
2023/04/21 05:48:17;;;;;;;30.05;17.05;;;7.10;99.90;;;;;;4945899;28;20035;-63
2023/04/21 05:50:43;;;;;;;33.10;16.58;;;7.10;99.90;;;;;;4944695;28;20480;-65
2023/04/21 05:53:08;;;;;;;35.67;18.38;;;7.20;99.90;;;;;;4937998;28;20031;-64
2023/04/21 05:55:34;;;;;;;31.88;18.05;;;7.30;99.90;;;;;;4934048;28;20161;-65
2023/04/21 05:58:00;;;;;;;30.25;16.60;;;7.30;99.90;;;;;;4930334;28;20027;-65
2023/04/21 06:00:26;;;;;;;30.90;17.75;;;7.30;99.90;;;;;;4928969;28;20031;-64
2023/04/21 06:02:51;;;;;;;34.03;17.17;;;7.40;99.90;;;;;;4938654;28;20034;-63
2023/04/21 06:05:17;;;;;;;32.10;18.05;;;7.50;99.90;;;;;;4923991;28;20050;-64
2023/04/21 06:07:43;;;;;;;25.63;14.80;;;7.50;99.90;;;;;;4928057;28;20031;-64
2023/04/21 06:10:10;;;;;;;19.65;12.13;;;7.50;99.90;;;;;;4935226;28;20032;-65
2023/04/21 06:12:35;;;;;;;24.05;14.43;;;7.50;99.90;;;;;;4931864;29;20032;-64
2023/04/21 06:15:01;;;;;;;26.67;15.10;;;7.60;99.90;;;;;;4925064;28;20089;-62
2023/04/21 06:17:27;;;;;;;29.73;15.55;;;7.70;99.90;;;;;;4926395;28;20117;-63
2023/04/21 06:19:54;;;;;;;28.42;16.08;;;7.80;99.90;;;;;;4917142;28;20031;-64
2023/04/21 06:22:23;;;;;;;20.02;12.23;;;8.10;99.90;;;;;;4925810;28;20028;-64
2023/04/21 06:24:49;;;;;;;12.32;6.72;;;8.30;99.90;;;;;;4961142;28;20503;-64
2023/04/21 06:27:15;;;;;;;31.02;8.23;;;8.30;99.90;;;;;;4937113;28;20115;-64
2023/04/21 06:29:44;;;;;;;22.83;7.00;;;8.40;99.90;;;;;;4928769;28;20032;-65
2023/04/21 06:32:11;;;;;;;24.88;5.97;;;8.40;99.90;;;;;;4925970;28;20110;-65
2023/04/21 06:34:37;;;;;;;42.85;6.82;;;8.30;99.90;;;;;;4927459;28;20027;-64
2023/04/21 06:37:02;;;;;;;16.05;9.77;;;8.20;99.90;;;;;;4926203;28;20031;-65
2023/04/21 06:39:28;;;;;;;17.52;9.13;;;8.20;99.90;;;;;;4926487;28;20409;-64
2023/04/21 06:41:54;;;;;;;24.58;13.10;;;8.30;99.90;;;;;;4906597;28;20646;-64
2023/04/21 06:44:20;;;;;;;17.80;11.63;;;8.40;99.90;;;;;;4924083;28;20030;-65
2023/04/21 06:46:46;;;;;;;16.20;11.00;;;8.60;99.90;;;;;;4925196;28;20516;-64
2023/04/21 06:49:12;;;;;;;10.20;6.80;;;8.80;99.90;;;;;;4927253;28;20046;-65
2023/04/21 06:51:37;;;;;;;14.55;5.90;;;9.10;99.90;;;;;;4923402;28;20032;-63
2023/04/21 06:54:04;;;;;;;19.45;5.38;;;9.30;99.90;;;;;;4924830;28;20071;-63
2023/04/21 06:56:30;;;;;;;8.60;5.75;;;9.10;99.90;;;;;;4926989;28;20032;-64
2023/04/21 06:58:56;;;;;;;19.05;6.00;;;9.00;99.90;;;;;;4929210;28;20486;-65
2023/04/21 07:01:25;;;;;;;7.10;5.07;;;9.00;99.90;;;;;;4928193;28;20028;-64
2023/04/21 07:03:51;;;;;;;19.75;7.05;;;9.00;99.90;;;;;;4928928;28;20485;-65
2023/04/21 07:06:17;;;;;;;10.75;6.32;;;9.00;99.90;;;;;;4928960;28;20042;-64
2023/04/21 07:08:43;;;;;;;13.52;8.65;;;9.30;99.90;;;;;;4927130;28;20039;-65
2023/04/21 07:11:08;;;;;;;19.08;10.95;;;9.30;99.90;;;;;;4925450;28;20077;-63
2023/04/21 07:13:34;;;;;;;17.95;11.80;;;9.40;99.90;;;;;;4926577;28;20032;-63
2023/04/21 07:16:00;;;;;;;18.70;10.25;;;9.40;99.90;;;;;;4924520;28;20123;-65
2023/04/21 07:18:25;;;;;;;23.70;12.43;;;9.40;99.90;;;;;;4925802;28;20028;-65
2023/04/21 07:20:51;;;;;;;19.88;12.75;;;9.50;99.90;;;;;;4924876;28;20063;-64
2023/04/21 07:23:17;;;;;;;21.02;12.82;;;9.60;99.90;;;;;;4926619;28;20036;-64
2023/04/21 07:25:43;;;;;;;20.95;12.85;;;9.70;99.90;;;;;;4925195;28;20043;-65
2023/04/21 07:28:09;;;;;;;22.27;14.20;;;9.80;99.90;;;;;;4926389;28;20043;-64
2023/04/21 07:30:36;;;;;;;24.83;13.93;;;9.80;99.90;;;;;;4928185;28;20058;-65
2023/04/21 07:33:01;;;;;;;22.85;12.98;;;10.10;99.90;;;;;;4924731;28;20111;-64
2023/04/21 07:35:27;;;;;;;25.55;14.27;;;10.40;99.90;;;;;;4925223;28;20581;-64
2023/04/21 07:37:53;;;;;;;23.65;12.98;;;10.80;99.90;;;;;;4924576;28;20434;-63
2023/04/21 07:40:19;;;;;;;23.02;13.38;;;11.20;99.90;;;;;;4933397;28;20389;-64
2023/04/21 07:42:45;;;;;;;24.63;13.98;;;11.20;99.90;;;;;;4902081;28;20793;-63
2023/04/21 07:45:11;;;;;;;23.63;13.43;;;11.10;99.90;;;;;;4931684;28;20028;-64
2023/04/21 07:47:37;;;;;;;19.98;13.75;;;11.00;99.90;;;;;;4908088;28;20504;-65
2023/04/21 07:50:03;;;;;;;22.95;14.15;;;11.30;99.90;;;;;;4924750;28;20111;-65
2023/04/21 07:52:28;;;;;;;24.85;14.60;;;11.60;99.90;;;;;;4926722;28;20032;-65
2023/04/21 07:54:54;;;;;;;23.63;14.35;;;12.00;99.90;;;;;;4926460;28;20390;-65
2023/04/21 07:57:20;;;;;;;26.73;14.55;;;12.20;99.90;;;;;;4929211;28;20031;-64
2023/04/21 07:59:46;;;;;;;20.50;12.00;;;12.60;99.90;;;;;;4945554;28;20036;-65
2023/04/21 08:02:11;;;;;;;24.13;13.52;;;12.60;99.90;;;;;;4951348;28;20033;-65
2023/04/21 08:04:37;;;;;;;21.98;13.38;;;12.70;99.90;;;;;;4931555;28;20378;-63
2023/04/21 08:07:02;;;;;;;23.30;14.40;;;12.70;99.90;;;;;;4927907;28;20393;-65
2023/04/21 08:09:28;;;;;;;21.92;13.95;;;13.20;99.90;;;;;;4924724;28;20034;-64
2023/04/21 08:11:54;;;;;;;24.23;14.35;;;13.50;99.90;;;;;;4933466;28;20145;-65
2023/04/21 08:14:20;;;;;;;22.42;13.88;;;13.40;99.90;;;;;;4938160;23;20051;-65
2023/04/21 08:16:45;;;;;;;23.70;13.50;;;13.00;99.90;;;;;;4930121;28;20082;-66
2023/04/21 08:19:11;;;;;;;23.38;14.63;;;13.20;99.90;;;;;;4926184;28;20019;-67
2023/04/21 08:21:37;;;;;;;19.92;12.90;;;12.70;99.90;;;;;;4923866;28;20100;-67
2023/04/21 08:24:02;;;;;;;21.90;14.13;;;12.70;99.90;;;;;;4928307;28;20039;-67
2023/04/21 08:26:29;;;;;;;20.08;13.57;;;12.30;99.90;;;;;;4961006;28;20567;-67
2023/04/21 08:28:55;;;;;;;22.38;14.25;;;12.20;99.90;;;;;;4959649;28;20030;-67
2023/04/21 08:31:21;;;;;;;22.02;14.10;;;12.20;99.90;;;;;;4940430;28;20028;-65
2023/04/21 08:33:47;;;;;;;25.50;14.73;;;12.00;99.90;;;;;;4926702;28;20074;-66
2023/04/21 08:36:13;;;;;;;23.98;14.98;;;12.20;99.90;;;;;;4924227;28;20047;-67
2023/04/21 08:38:41;;;;;;;24.25;15.00;;;12.30;99.90;;;;;;4932209;28;20031;-67
2023/04/21 08:41:08;;;;;;;20.77;13.63;;;12.40;99.90;;;;;;4907866;28;20036;-67
2023/04/21 08:43:33;;;;;;;25.25;15.05;;;12.40;99.90;;;;;;4926461;28;20081;-67
2023/04/21 08:46:01;;;;;;;20.30;13.40;;;12.30;99.90;;;;;;4927645;28;20027;-66
2023/04/21 08:48:28;;;;;;;22.00;13.43;;;12.30;99.90;;;;;;4928151;28;20450;-66
2023/04/21 08:50:54;;;;;;;24.77;15.05;;;12.40;99.90;;;;;;4926273;28;20119;-66
2023/04/21 08:53:20;;;;;;;22.05;13.52;;;13.30;99.90;;;;;;4925366;28;20169;-66
2023/04/21 08:55:50;;;;;;;20.60;13.52;;;14.70;99.90;;;;;;4933284;28;20035;-66
2023/04/21 08:58:16;;;;;;;21.65;12.68;;;15.30;99.90;;;;;;4928737;28;20023;-67
2023/04/21 09:00:41;;;;;;;22.05;13.77;;;15.50;99.90;;;;;;4935458;28;20401;-67
2023/04/21 09:03:07;;;;;;;19.65;12.80;;;15.30;99.90;;;;;;4930940;28;20032;-67
2023/04/21 09:05:34;;;;;;;22.27;15.68;;;14.90;99.90;;;;;;4929865;28;20039;-66
2023/04/21 09:08:15;;;;;;;20.95;15.20;;;14.50;99.90;;;;;;4924923;28;20035;-66
2023/04/21 09:10:48;;;;;;;21.48;14.30;;;14.40;99.90;;;;;;4928410;28;20097;-67
2023/04/21 09:13:15;;;;;;;20.37;13.37;;;14.70;99.90;;;;;;4927932;28;20073;-66
2023/04/21 09:15:42;;;;;;;20.30;12.30;;;15.40;99.90;;;;;;4931519;29;20287;-67
2023/04/21 09:18:36;;;;;;;29.83;16.80;;;16.60;99.90;;;;;;4926582;28;20421;-67
2023/04/21 09:21:13;;;;;;;19.55;12.63;;;18.10;99.90;;;;;;4923969;28;20036;-67
2023/04/21 09:23:50;;;;;;;17.08;11.90;;;18.60;99.90;;;;;;4927362;28;20039;-67
2023/04/21 09:26:17;;;;;;;18.65;12.85;;;19.20;99.90;;;;;;4916259;28;21414;-67
2023/04/21 09:28:44;;;;;;;18.13;11.77;;;18.90;98.60;;;;;;4936400;28;20035;-68
2023/04/21 09:31:14;;;;;;;17.10;11.75;;;18.80;99.80;;;;;;4926616;28;20451;-66
2023/04/21 09:33:47;;;;;;;17.60;12.15;;;18.20;99.90;;;;;;4924815;28;20127;-67
2023/04/21 09:36:21;;;;;;;17.20;11.50;;;18.10;99.90;;;;;;4911237;28;20081;-67
2023/04/21 09:38:56;;;;;;;19.65;12.60;;;17.90;99.90;;;;;;4933410;28;20031;-66
2023/04/21 09:41:22;;;;;;;17.48;12.07;;;17.80;99.90;;;;;;4901967;28;20043;-67
2023/04/21 09:43:48;;;;;;;22.42;15.38;;;18.00;99.90;;;;;;4924744;28;20151;-66
2023/04/21 09:46:15;;;;;;;20.63;13.60;;;17.80;99.90;;;;;;4924253;28;20028;-65
2023/04/21 09:48:43;;;;;;;22.80;13.05;;;17.80;99.90;;;;;;4924463;28;20498;-66
2023/04/21 09:51:13;;;;;;;19.38;12.90;;;17.70;99.90;;;;;;4926960;28;20039;-66
2023/04/21 09:53:40;;;;;;;21.88;12.15;;;17.70;99.90;;;;;;4926273;28;20034;-67
2023/04/21 09:56:15;;;;;;;21.13;12.23;;;18.10;99.90;;;;;;4926417;28;20103;-67
2023/04/21 09:58:51;;;;;;;24.77;13.82;;;19.10;99.90;;;;;;4927684;28;20035;-68
2023/04/21 10:01:18;;;;;;;24.00;13.25;;;19.70;97.30;;;;;;4935121;28;20026;-66
2023/04/21 10:03:46;;;;;;;19.10;12.40;;;20.20;98.50;;;;;;4925281;28;20035;-67
2023/04/21 10:06:12;;;;;;;21.02;13.00;;;20.60;98.10;;;;;;4925847;28;20035;-67
2023/04/21 10:08:38;;;;;;;21.20;12.77;;;20.40;95.80;;;;;;4926801;28;20028;-68
2023/04/21 10:11:05;;;;;;;19.00;12.70;;;20.30;95.60;;;;;;4926281;28;20046;-66
2023/04/21 10:13:32;;;;;;;19.35;11.55;;;20.30;95.50;;;;;;4927821;28;20032;-66
2023/04/21 10:16:06;;;;;;;18.35;10.48;;;20.40;96.30;;;;;;4925931;28;20512;-67
2023/04/21 10:18:41;;;;;;;20.30;11.32;;;20.30;94.30;;;;;;4925581;28;20039;-68
2023/04/21 10:21:08;;;;;;;23.13;12.68;;;20.10;95.50;;;;;;4926449;28;20490;-67
2023/04/21 10:23:42;;;;;;;18.75;12.05;;;18.90;94.80;;;;;;4932490;28;20035;-67
2023/04/21 10:26:24;;;;;;;19.83;12.18;;;18.40;96.50;;;;;;4933377;28;20038;-67
2023/04/21 10:28:53;;;;;;;22.52;12.60;;;18.20;96.30;;;;;;4929129;28;20032;-68
2023/04/21 10:31:25;;;;;;;18.60;11.55;;;18.10;98.30;;;;;;4930963;29;20054;-67
2023/04/21 10:34:15;;;;;;;18.50;10.88;;;18.50;98.30;;;;;;4928342;29;20046;-67
2023/04/21 10:36:43;;;;;;;18.17;11.15;;;18.90;98.30;;;;;;4928124;28;20559;-66
2023/04/21 10:39:15;;;;;;;20.23;11.13;;;19.00;96.70;;;;;;4925942;28;20028;-66
2023/04/21 10:41:42;;;;;;;21.27;11.05;;;18.90;97.90;;;;;;4925885;28;20393;-67
2023/04/21 10:44:12;;;;;;;14.20;9.43;;;18.90;96.60;;;;;;4916141;28;20058;-67
2023/04/21 10:46:49;;;;;;;13.98;8.95;;;18.90;96.50;;;;;;4930263;28;20456;-67
2023/04/21 10:49:23;;;;;;;15.00;8.90;;;18.90;96.40;;;;;;4926338;28;20024;-66
2023/04/21 10:51:58;;;;;;;15.60;9.93;;;18.80;96.90;;;;;;4926415;28;20067;-67
2023/04/21 10:54:36;;;;;;;16.08;9.38;;;19.00;95.10;;;;;;4932316;28;20019;-68
2023/04/21 10:57:06;;;;;;;16.58;9.88;;;18.90;95.70;;;;;;4933938;28;20049;-66
2023/04/21 10:59:34;;;;;;;16.92;9.40;;;18.70;94.60;;;;;;4935756;28;20154;-67
2023/04/21 11:02:10;;;;;;;16.85;9.63;;;18.60;94.50;;;;;;4926107;28;20040;-67
2023/04/21 11:04:38;;;;;;;17.48;9.75;;;18.80;96.20;;;;;;4923229;28;20032;-67
2023/04/21 11:07:12;;;;;;;18.92;10.15;;;18.90;95.50;;;;;;4925727;29;20035;-67
2023/04/21 11:09:39;;;;;;;;;;;18.50;95.60;;;;;;4929579;28;20118;-67
2023/04/21 11:12:08;;;;;;;16.08;9.65;;;18.50;97.10;;;;;;4926399;28;19915;-67
2023/04/21 11:14:37;;;;;;;15.68;9.38;;;18.90;96.10;;;;;;4924997;28;20085;-67
2023/04/21 11:17:04;;;;;;;15.07;8.57;;;19.00;95.80;;;;;;4909719;28;20389;-67
2023/04/21 11:19:33;;;;;;;14.55;9.00;;;19.00;96.20;;;;;;4922361;28;20170;-67
2023/04/21 11:21:58;;;;;;;15.73;9.63;;;19.10;95.70;;;;;;4922472;28;20042;-66
2023/04/21 11:24:24;;;;;;;15.65;9.45;;;18.80;95.30;;;;;;4921728;28;20040;-69
2023/04/21 11:26:50;;;;;;;19.15;9.98;;;18.50;94.90;;;;;;4924691;28;20032;-66
2023/04/21 11:29:16;;;;;;;15.45;8.80;;;18.40;95.30;;;;;;4931551;28;20039;-67
2023/04/21 11:31:44;;;;;;;12.15;7.22;;;18.20;95.70;;;;;;4945833;28;20028;-66
2023/04/21 11:34:10;;;;;;;14.32;7.57;;;18.70;96.90;;;;;;4939843;28;20370;-67
2023/04/21 11:36:41;;;;;;;14.25;8.48;;;18.70;96.10;;;;;;4934439;28;20035;-67
2023/04/21 11:39:15;;;;;;;14.45;8.63;;;19.00;94.70;;;;;;4939159;28;20103;-66
2023/04/21 11:41:42;;;;;;;16.38;8.55;;;19.20;94.10;;;;;;4945154;28;20030;-66
2023/04/21 11:44:08;;;;;;;13.98;9.32;;;19.10;95.70;;;;;;4918640;28;20059;-67
2023/04/21 11:46:37;;;;;;;16.45;10.25;;;19.20;95.20;;;;;;4942540;28;20118;-67
2023/04/21 11:49:10;;;;;;;15.25;8.70;;;19.00;94.40;;;;;;4928657;28;20028;-66
2023/04/21 11:51:43;;;;;;;16.30;9.43;;;18.50;95.30;;;;;;4929965;28;20400;-67
2023/04/21 11:54:13;;;;;;;18.75;10.40;;;18.40;95.30;;;;;;4946560;28;20330;-65
2023/04/21 11:56:41;;;;;;;17.13;9.60;;;18.10;96.20;;;;;;4936460;28;20039;-66
2023/04/21 11:59:11;;;;;;;16.67;9.00;;;18.10;96.70;;;;;;4935031;28;20019;-67
2023/04/21 12:01:55;;;;;;;12.70;9.00;;;18.60;97.80;;;;;;4931579;29;20027;-66
2023/04/21 12:04:24;;;;;;;13.60;8.13;;;18.80;95.90;;;;;;4931602;29;20091;-68
2023/04/21 12:07:02;;;;;;;14.93;8.05;;;18.90;96.60;;;;;;4925797;28;20030;-67
2023/04/21 12:09:28;;;;;;;12.48;8.60;;;18.80;95.50;;;;;;4931219;28;20561;-67
2023/04/21 12:11:56;;;;;;;12.60;7.88;;;19.00;95.20;;;;;;4928234;28;20107;-67
2023/04/21 12:14:23;;;;;;;16.95;9.98;;;18.80;96.20;;;;;;4927324;28;20036;-65
2023/04/21 12:16:52;;;;;;;18.10;9.20;;;18.50;95.90;;;;;;4929354;28;20210;-65
2023/04/21 12:19:35;;;;;;;13.80;9.07;;;18.10;95.80;;;;;;4928947;28;20106;-66
2023/04/21 12:22:00;;;;;;;11.32;7.57;;;18.20;97.20;;;;;;4923303;28;20077;-66
2023/04/21 12:24:26;;;;;;;16.20;9.85;;;18.30;97.70;;;;;;4931189;28;20114;-67
2023/04/21 12:26:53;;;;;;;15.25;9.73;;;18.50;96.40;;;;;;4933709;28;20032;-67
2023/04/21 12:29:18;;;;;;;14.60;9.20;;;18.40;96.20;;;;;;4924904;28;20051;-68
2023/04/21 12:31:44;;;;;;;11.73;8.20;;;18.10;97.20;;;;;;4931981;28;20493;-67
2023/04/21 12:34:09;;;;;;;12.07;8.63;;;18.00;96.90;;;;;;4929464;28;20032;-67
2023/04/21 12:36:35;;;;;;;16.50;10.07;;;17.90;96.60;;;;;;4925730;28;20039;-66